sensor_id;sensor_type;location;lat;lon;timestamp;temperature;humidity
35700;DHT22;21818;51.078;12.108;2022-12-08T00:01:21;9.20;79.20
35700;DHT22;21818;51.078;12.108;2022-12-08T00:03:47;9.20;79.20
35700;DHT22;21818;51.078;12.108;2022-12-08T00:06:25;9.10;79.30
35700;DHT22;21818;51.078;12.108;2022-12-08T00:11:58;9.10;79.40
35700;DHT22;21818;51.078;12.108;2022-12-08T00:14:32;9.10;79.60
35700;DHT22;21818;51.078;12.108;2022-12-08T00:16:59;9.10;79.60
35700;DHT22;21818;51.078;12.108;2022-12-08T00:19:26;9.10;79.60
35700;DHT22;21818;51.078;12.108;2022-12-08T00:21:52;9.10;79.60
35700;DHT22;21818;51.078;12.108;2022-12-08T00:24:20;9.10;79.60
35700;DHT22;21818;51.078;12.108;2022-12-08T00:26:46;9.10;79.70
35700;DHT22;21818;51.078;12.108;2022-12-08T00:29:12;9.20;79.80
35700;DHT22;21818;51.078;12.108;2022-12-08T00:31:38;9.30;79.80
35700;DHT22;21818;51.078;12.108;2022-12-08T00:34:04;9.30;79.70
35700;DHT22;21818;51.078;12.108;2022-12-08T00:36:30;9.30;79.90
35700;DHT22;21818;51.078;12.108;2022-12-08T00:38:56;9.40;79.90
35700;DHT22;21818;51.078;12.108;2022-12-08T00:41:23;9.40;79.80
35700;DHT22;21818;51.078;12.108;2022-12-08T00:44:09;9.50;79.60
35700;DHT22;21818;51.078;12.108;2022-12-08T00:46:35;9.60;79.40
35700;DHT22;21818;51.078;12.108;2022-12-08T00:49:02;9.50;79.50
35700;DHT22;21818;51.078;12.108;2022-12-08T00:51:27;9.50;79.70
35700;DHT22;21818;51.078;12.108;2022-12-08T00:53:53;9.50;79.70
35700;DHT22;21818;51.078;12.108;2022-12-08T00:56:19;9.60;79.80
35700;DHT22;21818;51.078;12.108;2022-12-08T00:58:44;9.60;79.60
35700;DHT22;21818;51.078;12.108;2022-12-08T01:01:11;9.70;79.40
35700;DHT22;21818;51.078;12.108;2022-12-08T01:03:37;9.70;79.40
35700;DHT22;21818;51.078;12.108;2022-12-08T01:06:04;9.70;79.30
35700;DHT22;21818;51.078;12.108;2022-12-08T01:08:29;9.70;79.30
35700;DHT22;21818;51.078;12.108;2022-12-08T01:10:55;9.70;79.40
35700;DHT22;21818;51.078;12.108;2022-12-08T01:13:21;9.70;79.30
35700;DHT22;21818;51.078;12.108;2022-12-08T01:15:47;9.70;79.20
35700;DHT22;21818;51.078;12.108;2022-12-08T01:18:12;9.70;79.40
35700;DHT22;21818;51.078;12.108;2022-12-08T01:20:38;9.70;79.30
35700;DHT22;21818;51.078;12.108;2022-12-08T01:23:03;9.70;79.10
35700;DHT22;21818;51.078;12.108;2022-12-08T01:25:29;9.70;79.20
35700;DHT22;21818;51.078;12.108;2022-12-08T01:27:55;9.70;79.40
35700;DHT22;21818;51.078;12.108;2022-12-08T01:30:20;9.60;79.40
35700;DHT22;21818;51.078;12.108;2022-12-08T01:32:46;9.60;79.40
35700;DHT22;21818;51.078;12.108;2022-12-08T01:35:12;9.60;79.40
35700;DHT22;21818;51.078;12.108;2022-12-08T01:37:38;9.50;79.50
35700;DHT22;21818;51.078;12.108;2022-12-08T01:40:04;9.50;79.50
35700;DHT22;21818;51.078;12.108;2022-12-08T01:42:30;9.50;79.60
35700;DHT22;21818;51.078;12.108;2022-12-08T01:45:01;9.50;79.60
35700;DHT22;21818;51.078;12.108;2022-12-08T01:47:35;9.50;79.60
35700;DHT22;21818;51.078;12.108;2022-12-08T01:50:04;9.40;79.60
35700;DHT22;21818;51.078;12.108;2022-12-08T01:52:54;9.50;79.70
35700;DHT22;21818;51.078;12.108;2022-12-08T01:58:34;9.50;79.70
35700;DHT22;21818;51.078;12.108;2022-12-08T02:01:00;9.50;79.70
35700;DHT22;21818;51.078;12.108;2022-12-08T02:03:44;9.40;79.70
35700;DHT22;21818;51.078;12.108;2022-12-08T02:06:11;9.40;79.90
35700;DHT22;21818;51.078;12.108;2022-12-08T02:08:39;9.40;79.80
35700;DHT22;21818;51.078;12.108;2022-12-08T02:11:08;9.40;80.00
35700;DHT22;21818;51.078;12.108;2022-12-08T02:13:34;9.40;80.00
35700;DHT22;21818;51.078;12.108;2022-12-08T02:16:24;9.50;79.80
35700;DHT22;21818;51.078;12.108;2022-12-08T02:21:37;9.40;79.80
35700;DHT22;21818;51.078;12.108;2022-12-08T02:27:27;9.40;80.10
35700;DHT22;21818;51.078;12.108;2022-12-08T02:30:17;9.30;80.00
35700;DHT22;21818;51.078;12.108;2022-12-08T02:37:47;9.40;79.90
35700;DHT22;21818;51.078;12.108;2022-12-08T02:43:13;9.40;79.90
35700;DHT22;21818;51.078;12.108;2022-12-08T02:45:52;9.40;79.90
35700;DHT22;21818;51.078;12.108;2022-12-08T02:48:18;9.50;79.80
35700;DHT22;21818;51.078;12.108;2022-12-08T02:50:44;9.50;79.90
35700;DHT22;21818;51.078;12.108;2022-12-08T02:53:09;9.50;79.70
35700;DHT22;21818;51.078;12.108;2022-12-08T02:58:58;9.50;80.30
35700;DHT22;21818;51.078;12.108;2022-12-08T03:01:57;9.50;79.90
35700;DHT22;21818;51.078;12.108;2022-12-08T03:07:08;9.60;79.60
35700;DHT22;21818;51.078;12.108;2022-12-08T03:09:59;9.60;79.70
35700;DHT22;21818;51.078;12.108;2022-12-08T03:12:43;9.60;79.70
35700;DHT22;21818;51.078;12.108;2022-12-08T03:15:13;9.60;79.80
35700;DHT22;21818;51.078;12.108;2022-12-08T03:17:44;9.60;79.80
35700;DHT22;21818;51.078;12.108;2022-12-08T03:20:13;9.70;79.70
35700;DHT22;21818;51.078;12.108;2022-12-08T03:22:40;9.70;79.70
35700;DHT22;21818;51.078;12.108;2022-12-08T03:25:09;9.70;79.60
35700;DHT22;21818;51.078;12.108;2022-12-08T03:27:37;9.60;79.60
35700;DHT22;21818;51.078;12.108;2022-12-08T03:30:03;9.60;79.80
35700;DHT22;21818;51.078;12.108;2022-12-08T03:32:33;9.60;79.70
35700;DHT22;21818;51.078;12.108;2022-12-08T03:35:07;9.60;79.90
35700;DHT22;21818;51.078;12.108;2022-12-08T03:37:35;9.60;79.80
35700;DHT22;21818;51.078;12.108;2022-12-08T03:40:01;9.60;80.00
35700;DHT22;21818;51.078;12.108;2022-12-08T03:42:27;9.70;79.80
35700;DHT22;21818;51.078;12.108;2022-12-08T03:44:52;9.70;79.90
35700;DHT22;21818;51.078;12.108;2022-12-08T03:47:18;9.70;79.70
35700;DHT22;21818;51.078;12.108;2022-12-08T03:49:44;9.70;79.70
35700;DHT22;21818;51.078;12.108;2022-12-08T03:52:09;9.60;79.70
35700;DHT22;21818;51.078;12.108;2022-12-08T03:54:35;9.60;79.70
35700;DHT22;21818;51.078;12.108;2022-12-08T03:57:00;9.60;79.60
35700;DHT22;21818;51.078;12.108;2022-12-08T03:59:26;9.60;79.70
35700;DHT22;21818;51.078;12.108;2022-12-08T04:01:51;9.50;79.70
35700;DHT22;21818;51.078;12.108;2022-12-08T04:04:17;9.50;79.90
35700;DHT22;21818;51.078;12.108;2022-12-08T04:06:43;9.50;79.90
35700;DHT22;21818;51.078;12.108;2022-12-08T04:09:09;9.50;80.00
35700;DHT22;21818;51.078;12.108;2022-12-08T04:11:34;9.50;80.00
35700;DHT22;21818;51.078;12.108;2022-12-08T04:14:00;9.50;79.90
35700;DHT22;21818;51.078;12.108;2022-12-08T04:16:25;9.50;79.80
35700;DHT22;21818;51.078;12.108;2022-12-08T04:18:52;9.50;79.90
35700;DHT22;21818;51.078;12.108;2022-12-08T04:21:18;9.50;80.00
35700;DHT22;21818;51.078;12.108;2022-12-08T04:23:45;9.50;79.90
35700;DHT22;21818;51.078;12.108;2022-12-08T04:26:10;9.40;80.00
35700;DHT22;21818;51.078;12.108;2022-12-08T04:28:37;9.50;80.00
35700;DHT22;21818;51.078;12.108;2022-12-08T04:31:03;9.50;80.00
35700;DHT22;21818;51.078;12.108;2022-12-08T04:33:28;9.40;80.00
35700;DHT22;21818;51.078;12.108;2022-12-08T04:35:54;9.40;80.00
35700;DHT22;21818;51.078;12.108;2022-12-08T04:38:20;9.40;80.00
35700;DHT22;21818;51.078;12.108;2022-12-08T04:40:45;9.40;80.00
35700;DHT22;21818;51.078;12.108;2022-12-08T04:43:11;9.40;80.00
35700;DHT22;21818;51.078;12.108;2022-12-08T04:45:40;9.40;80.10
35700;DHT22;21818;51.078;12.108;2022-12-08T04:48:06;9.30;80.10
35700;DHT22;21818;51.078;12.108;2022-12-08T04:50:32;9.30;80.10
35700;DHT22;21818;51.078;12.108;2022-12-08T04:52:58;9.30;80.10
35700;DHT22;21818;51.078;12.108;2022-12-08T04:55:23;9.40;80.20
35700;DHT22;21818;51.078;12.108;2022-12-08T04:57:49;9.40;80.10
35700;DHT22;21818;51.078;12.108;2022-12-08T05:00:15;9.40;80.20
35700;DHT22;21818;51.078;12.108;2022-12-08T05:02:41;9.30;80.00
35700;DHT22;21818;51.078;12.108;2022-12-08T05:05:07;9.30;80.30
35700;DHT22;21818;51.078;12.108;2022-12-08T05:07:33;9.30;80.30
35700;DHT22;21818;51.078;12.108;2022-12-08T05:09:58;9.30;80.40
35700;DHT22;21818;51.078;12.108;2022-12-08T05:12:24;9.30;80.40
35700;DHT22;21818;51.078;12.108;2022-12-08T05:14:49;9.20;80.40
35700;DHT22;21818;51.078;12.108;2022-12-08T05:17:16;9.20;80.40
35700;DHT22;21818;51.078;12.108;2022-12-08T05:19:42;9.20;80.50
35700;DHT22;21818;51.078;12.108;2022-12-08T05:22:07;9.20;80.60
35700;DHT22;21818;51.078;12.108;2022-12-08T05:24:33;9.10;80.60
35700;DHT22;21818;51.078;12.108;2022-12-08T05:26:59;9.10;80.80
35700;DHT22;21818;51.078;12.108;2022-12-08T05:29:24;9.10;80.80
35700;DHT22;21818;51.078;12.108;2022-12-08T05:31:50;9.10;80.70
35700;DHT22;21818;51.078;12.108;2022-12-08T05:34:16;9.20;80.50
35700;DHT22;21818;51.078;12.108;2022-12-08T05:36:41;9.10;80.60
35700;DHT22;21818;51.078;12.108;2022-12-08T05:39:11;9.20;80.70
35700;DHT22;21818;51.078;12.108;2022-12-08T05:41:36;9.20;80.50
35700;DHT22;21818;51.078;12.108;2022-12-08T05:44:02;9.20;80.70
35700;DHT22;21818;51.078;12.108;2022-12-08T05:46:27;9.00;80.70
35700;DHT22;21818;51.078;12.108;2022-12-08T05:48:53;9.00;81.00
35700;DHT22;21818;51.078;12.108;2022-12-08T05:51:21;9.00;80.90
35700;DHT22;21818;51.078;12.108;2022-12-08T05:53:48;9.00;81.00
35700;DHT22;21818;51.078;12.108;2022-12-08T05:56:14;9.00;81.10
35700;DHT22;21818;51.078;12.108;2022-12-08T05:58:40;8.90;81.10
35700;DHT22;21818;51.078;12.108;2022-12-08T06:01:06;8.90;81.30
35700;DHT22;21818;51.078;12.108;2022-12-08T06:03:32;8.90;81.40
35700;DHT22;21818;51.078;12.108;2022-12-08T06:05:58;8.80;81.40
35700;DHT22;21818;51.078;12.108;2022-12-08T06:08:23;8.80;81.40
35700;DHT22;21818;51.078;12.108;2022-12-08T06:10:49;8.80;81.40
35700;DHT22;21818;51.078;12.108;2022-12-08T06:13:15;8.90;81.30
35700;DHT22;21818;51.078;12.108;2022-12-08T06:15:41;8.80;81.20
35700;DHT22;21818;51.078;12.108;2022-12-08T06:18:07;8.80;81.20
35700;DHT22;21818;51.078;12.108;2022-12-08T06:20:34;8.80;81.20
35700;DHT22;21818;51.078;12.108;2022-12-08T06:22:59;8.70;81.20
35700;DHT22;21818;51.078;12.108;2022-12-08T06:25:25;8.70;81.10
35700;DHT22;21818;51.078;12.108;2022-12-08T06:27:50;8.70;81.10
35700;DHT22;21818;51.078;12.108;2022-12-08T06:30:17;8.70;81.80
35700;DHT22;21818;51.078;12.108;2022-12-08T06:32:43;8.60;81.20
35700;DHT22;21818;51.078;12.108;2022-12-08T06:35:09;8.60;81.80
35700;DHT22;21818;51.078;12.108;2022-12-08T06:37:35;8.60;81.30
35700;DHT22;21818;51.078;12.108;2022-12-08T06:40:01;8.60;81.90
35700;DHT22;21818;51.078;12.108;2022-12-08T06:42:26;8.60;81.30
35700;DHT22;21818;51.078;12.108;2022-12-08T06:45:14;8.60;81.90
35700;DHT22;21818;51.078;12.108;2022-12-08T06:47:40;8.50;81.40
35700;DHT22;21818;51.078;12.108;2022-12-08T06:50:06;8.50;81.60
35700;DHT22;21818;51.078;12.108;2022-12-08T06:52:32;8.50;81.40
35700;DHT22;21818;51.078;12.108;2022-12-08T06:54:58;8.50;81.50
35700;DHT22;21818;51.078;12.108;2022-12-08T06:57:23;8.50;81.40
35700;DHT22;21818;51.078;12.108;2022-12-08T06:59:50;8.50;81.40
35700;DHT22;21818;51.078;12.108;2022-12-08T07:02:15;8.50;81.50
35700;DHT22;21818;51.078;12.108;2022-12-08T07:04:41;8.50;81.40
35700;DHT22;21818;51.078;12.108;2022-12-08T07:07:07;8.50;81.50
35700;DHT22;21818;51.078;12.108;2022-12-08T07:09:33;8.50;81.40
35700;DHT22;21818;51.078;12.108;2022-12-08T07:11:58;8.50;81.50
35700;DHT22;21818;51.078;12.108;2022-12-08T07:14:24;8.50;81.40
35700;DHT22;21818;51.078;12.108;2022-12-08T07:16:50;8.50;81.50
35700;DHT22;21818;51.078;12.108;2022-12-08T07:19:16;8.50;81.40
35700;DHT22;21818;51.078;12.108;2022-12-08T07:21:42;8.50;81.40
35700;DHT22;21818;51.078;12.108;2022-12-08T07:24:08;8.50;81.40
35700;DHT22;21818;51.078;12.108;2022-12-08T07:26:34;8.50;81.20
35700;DHT22;21818;51.078;12.108;2022-12-08T07:28:59;8.60;81.30
35700;DHT22;21818;51.078;12.108;2022-12-08T07:31:26;8.60;81.30
35700;DHT22;21818;51.078;12.108;2022-12-08T07:33:53;8.50;81.20
35700;DHT22;21818;51.078;12.108;2022-12-08T07:36:20;8.50;81.20
35700;DHT22;21818;51.078;12.108;2022-12-08T07:38:46;8.50;81.20
35700;DHT22;21818;51.078;12.108;2022-12-08T07:41:17;8.50;81.40
35700;DHT22;21818;51.078;12.108;2022-12-08T07:43:43;8.50;81.30
35700;DHT22;21818;51.078;12.108;2022-12-08T07:46:13;8.60;81.30
35700;DHT22;21818;51.078;12.108;2022-12-08T07:48:39;8.50;81.30
35700;DHT22;21818;51.078;12.108;2022-12-08T07:51:05;8.70;81.20
35700;DHT22;21818;51.078;12.108;2022-12-08T07:53:31;9.30;79.90
35700;DHT22;21818;51.078;12.108;2022-12-08T07:55:57;9.80;78.80
35700;DHT22;21818;51.078;12.108;2022-12-08T07:58:23;10.10;78.10
35700;DHT22;21818;51.078;12.108;2022-12-08T08:00:50;10.30;77.70
35700;DHT22;21818;51.078;12.108;2022-12-08T08:03:16;10.50;77.40
35700;DHT22;21818;51.078;12.108;2022-12-08T08:05:42;10.60;77.20
35700;DHT22;21818;51.078;12.108;2022-12-08T08:08:09;10.70;77.10
35700;DHT22;21818;51.078;12.108;2022-12-08T08:10:34;10.80;77.00
35700;DHT22;21818;51.078;12.108;2022-12-08T08:13:00;10.80;76.90
35700;DHT22;21818;51.078;12.108;2022-12-08T08:15:26;10.90;76.80
35700;DHT22;21818;51.078;12.108;2022-12-08T08:17:52;10.90;76.80
35700;DHT22;21818;51.078;12.108;2022-12-08T08:20:19;11.00;76.70
35700;DHT22;21818;51.078;12.108;2022-12-08T08:22:46;11.00;76.70
35700;DHT22;21818;51.078;12.108;2022-12-08T08:25:13;11.10;76.60
35700;DHT22;21818;51.078;12.108;2022-12-08T08:27:39;11.10;76.60
35700;DHT22;21818;51.078;12.108;2022-12-08T08:30:06;11.10;76.50
35700;DHT22;21818;51.078;12.108;2022-12-08T08:32:33;11.20;76.50
35700;DHT22;21818;51.078;12.108;2022-12-08T08:34:59;11.20;76.50
35700;DHT22;21818;51.078;12.108;2022-12-08T08:37:24;11.20;76.50
35700;DHT22;21818;51.078;12.108;2022-12-08T08:39:50;11.20;76.50
35700;DHT22;21818;51.078;12.108;2022-12-08T08:42:16;11.30;76.40
35700;DHT22;21818;51.078;12.108;2022-12-08T08:44:41;11.30;76.40
35700;DHT22;21818;51.078;12.108;2022-12-08T08:47:07;11.40;76.40
35700;DHT22;21818;51.078;12.108;2022-12-08T08:49:33;11.30;76.40
35700;DHT22;21818;51.078;12.108;2022-12-08T08:51:58;11.40;76.40
35700;DHT22;21818;51.078;12.108;2022-12-08T08:54:24;11.40;76.30
35700;DHT22;21818;51.078;12.108;2022-12-08T08:56:50;11.40;76.30
35700;DHT22;21818;51.078;12.108;2022-12-08T08:59:17;11.50;76.30
35700;DHT22;21818;51.078;12.108;2022-12-08T09:01:42;11.50;76.20
35700;DHT22;21818;51.078;12.108;2022-12-08T09:04:09;11.50;76.10
35700;DHT22;21818;51.078;12.108;2022-12-08T09:06:34;11.60;76.20
35700;DHT22;21818;51.078;12.108;2022-12-08T09:09:00;11.60;76.10
35700;DHT22;21818;51.078;12.108;2022-12-08T09:11:26;11.60;76.00
35700;DHT22;21818;51.078;12.108;2022-12-08T09:13:52;11.60;76.00
35700;DHT22;21818;51.078;12.108;2022-12-08T09:16:18;11.60;75.90
35700;DHT22;21818;51.078;12.108;2022-12-08T09:18:44;11.70;75.90
35700;DHT22;21818;51.078;12.108;2022-12-08T09:21:13;11.70;75.80
35700;DHT22;21818;51.078;12.108;2022-12-08T09:23:41;11.70;75.80
35700;DHT22;21818;51.078;12.108;2022-12-08T09:26:07;11.70;75.80
35700;DHT22;21818;51.078;12.108;2022-12-08T09:28:33;11.80;75.80
35700;DHT22;21818;51.078;12.108;2022-12-08T09:30:59;11.80;75.70
35700;DHT22;21818;51.078;12.108;2022-12-08T09:33:25;11.80;75.70
35700;DHT22;21818;51.078;12.108;2022-12-08T09:35:51;11.80;75.60
35700;DHT22;21818;51.078;12.108;2022-12-08T09:38:17;11.80;75.50
35700;DHT22;21818;51.078;12.108;2022-12-08T09:40:52;11.80;75.50
35700;DHT22;21818;51.078;12.108;2022-12-08T09:46:08;11.90;75.50
35700;DHT22;21818;51.078;12.108;2022-12-08T09:48:42;11.90;75.40
35700;DHT22;21818;51.078;12.108;2022-12-08T09:51:10;11.90;75.40
35700;DHT22;21818;51.078;12.108;2022-12-08T09:53:54;11.90;75.30
35700;DHT22;21818;51.078;12.108;2022-12-08T09:56:22;11.90;75.30
35700;DHT22;21818;51.078;12.108;2022-12-08T10:01:36;11.90;75.10
35700;DHT22;21818;51.078;12.108;2022-12-08T10:14:34;12.00;74.90
35700;DHT22;21818;51.078;12.108;2022-12-08T10:17:19;12.00;75.00
35700;DHT22;21818;51.078;12.108;2022-12-08T10:19:47;12.00;75.00
35700;DHT22;21818;51.078;12.108;2022-12-08T10:22:23;12.00;74.90
35700;DHT22;21818;51.078;12.108;2022-12-08T10:27:34;12.00;74.80
35700;DHT22;21818;51.078;12.108;2022-12-08T10:30:01;12.00;74.80
35700;DHT22;21818;51.078;12.108;2022-12-08T10:32:33;12.00;74.70
35700;DHT22;21818;51.078;12.108;2022-12-08T10:35:08;12.10;74.70
35700;DHT22;21818;51.078;12.108;2022-12-08T10:37:35;12.10;74.60
35700;DHT22;21818;51.078;12.108;2022-12-08T10:40:17;12.10;74.50
35700;DHT22;21818;51.078;12.108;2022-12-08T10:42:46;12.10;74.40
35700;DHT22;21818;51.078;12.108;2022-12-08T10:45:25;12.20;74.40
35700;DHT22;21818;51.078;12.108;2022-12-08T10:48:05;12.10;74.30
35700;DHT22;21818;51.078;12.108;2022-12-08T10:50:45;12.10;74.30
35700;DHT22;21818;51.078;12.108;2022-12-08T10:53:14;12.10;74.30
35700;DHT22;21818;51.078;12.108;2022-12-08T10:58:36;12.20;74.30
35700;DHT22;21818;51.078;12.108;2022-12-08T11:01:23;12.20;74.30
35700;DHT22;21818;51.078;12.108;2022-12-08T11:03:53;12.20;74.20
35700;DHT22;21818;51.078;12.108;2022-12-08T11:06:33;12.20;74.00
35700;DHT22;21818;51.078;12.108;2022-12-08T11:09:44;12.30;74.60
35700;DHT22;21818;51.078;12.108;2022-12-08T11:11:52;12.30;73.90
35700;DHT22;21818;51.078;12.108;2022-12-08T11:14:20;12.30;73.80
35700;DHT22;21818;51.078;12.108;2022-12-08T11:16:48;12.40;73.80
35700;DHT22;21818;51.078;12.108;2022-12-08T11:19:16;12.40;73.70
35700;DHT22;21818;51.078;12.108;2022-12-08T11:21:42;12.50;73.60
35700;DHT22;21818;51.078;12.108;2022-12-08T11:26:50;12.50;73.40
35700;DHT22;21818;51.078;12.108;2022-12-08T11:29:16;12.50;73.40
35700;DHT22;21818;51.078;12.108;2022-12-08T11:31:58;12.50;73.40
35700;DHT22;21818;51.078;12.108;2022-12-08T11:34:45;12.50;73.40
35700;DHT22;21818;51.078;12.108;2022-12-08T11:39:57;12.50;73.40
35700;DHT22;21818;51.078;12.108;2022-12-08T11:42:29;12.40;73.30
35700;DHT22;21818;51.078;12.108;2022-12-08T11:44:58;12.40;73.30
35700;DHT22;21818;51.078;12.108;2022-12-08T11:47:46;12.40;73.30
35700;DHT22;21818;51.078;12.108;2022-12-08T11:50:27;12.40;73.20
35700;DHT22;21818;51.078;12.108;2022-12-08T11:52:55;12.40;73.20
35700;DHT22;21818;51.078;12.108;2022-12-08T11:55:42;12.40;73.30
35700;DHT22;21818;51.078;12.108;2022-12-08T11:58:22;12.40;73.20
35700;DHT22;21818;51.078;12.108;2022-12-08T12:00:49;12.40;73.20
35700;DHT22;21818;51.078;12.108;2022-12-08T12:03:26;12.40;73.20
35700;DHT22;21818;51.078;12.108;2022-12-08T12:11:08;12.40;73.10
35700;DHT22;21818;51.078;12.108;2022-12-08T12:16:29;12.40;73.10
35700;DHT22;21818;51.078;12.108;2022-12-08T12:19:00;12.40;73.10
35700;DHT22;21818;51.078;12.108;2022-12-08T12:21:41;12.40;73.00
35700;DHT22;21818;51.078;12.108;2022-12-08T12:24:23;12.40;72.90
35700;DHT22;21818;51.078;12.108;2022-12-08T12:29:45;12.40;72.90
35700;DHT22;21818;51.078;12.108;2022-12-08T12:32:12;12.40;72.90
35700;DHT22;21818;51.078;12.108;2022-12-08T12:34:50;12.40;72.90
35700;DHT22;21818;51.078;12.108;2022-12-08T12:37:34;12.40;72.90
35700;DHT22;21818;51.078;12.108;2022-12-08T12:40:24;12.40;72.90
35700;DHT22;21818;51.078;12.108;2022-12-08T12:47:50;12.40;72.80
35700;DHT22;21818;51.078;12.108;2022-12-08T12:53:01;12.40;72.80
35700;DHT22;21818;51.078;12.108;2022-12-08T13:00:47;12.40;72.80
35700;DHT22;21818;51.078;12.108;2022-12-08T13:03:16;12.40;72.80
35700;DHT22;21818;51.078;12.108;2022-12-08T13:05:51;12.30;72.70
35700;DHT22;21818;51.078;12.108;2022-12-08T13:08:22;12.30;72.80
35700;DHT22;21818;51.078;12.108;2022-12-08T13:11:02;12.30;72.80
35700;DHT22;21818;51.078;12.108;2022-12-08T13:13:29;12.30;72.80
35700;DHT22;21818;51.078;12.108;2022-12-08T13:16:12;12.30;73.40
35700;DHT22;21818;51.078;12.108;2022-12-08T13:18:46;12.30;73.40
35700;DHT22;21818;51.078;12.108;2022-12-08T13:21:23;12.30;72.80
35700;DHT22;21818;51.078;12.108;2022-12-08T13:26:49;12.30;72.80
35700;DHT22;21818;51.078;12.108;2022-12-08T13:31:46;12.30;72.80
35700;DHT22;21818;51.078;12.108;2022-12-08T13:39:43;12.30;72.80
35700;DHT22;21818;51.078;12.108;2022-12-08T13:44:50;12.20;72.70
35700;DHT22;21818;51.078;12.108;2022-12-08T13:47:23;12.20;72.70
35700;DHT22;21818;51.078;12.108;2022-12-08T13:50:00;12.20;72.70
35700;DHT22;21818;51.078;12.108;2022-12-08T13:52:37;12.20;72.70
35700;DHT22;21818;51.078;12.108;2022-12-08T13:55:03;12.20;72.70
35700;DHT22;21818;51.078;12.108;2022-12-08T13:57:35;12.20;72.70
35700;DHT22;21818;51.078;12.108;2022-12-08T14:00:11;12.20;72.70
35700;DHT22;21818;51.078;12.108;2022-12-08T14:02:44;12.20;72.70
35700;DHT22;21818;51.078;12.108;2022-12-08T14:05:10;12.20;72.70
35700;DHT22;21818;51.078;12.108;2022-12-08T14:07:38;12.20;72.70
35700;DHT22;21818;51.078;12.108;2022-12-08T14:10:08;12.20;72.70
35700;DHT22;21818;51.078;12.108;2022-12-08T14:12:35;12.20;72.70
35700;DHT22;21818;51.078;12.108;2022-12-08T14:15:05;12.20;72.70
35700;DHT22;21818;51.078;12.108;2022-12-08T14:17:32;12.20;72.70
35700;DHT22;21818;51.078;12.108;2022-12-08T14:20:28;12.20;72.70
35700;DHT22;21818;51.078;12.108;2022-12-08T14:22:54;12.20;73.20
35700;DHT22;21818;51.078;12.108;2022-12-08T14:25:21;12.20;72.70
35700;DHT22;21818;51.078;12.108;2022-12-08T14:27:48;12.20;72.70
35700;DHT22;21818;51.078;12.108;2022-12-08T14:30:24;12.20;72.70
35700;DHT22;21818;51.078;12.108;2022-12-08T14:32:53;12.20;72.70
35700;DHT22;21818;51.078;12.108;2022-12-08T14:38:00;12.20;72.70
35700;DHT22;21818;51.078;12.108;2022-12-08T14:40:28;12.20;72.60
35700;DHT22;21818;51.078;12.108;2022-12-08T14:45:34;12.10;72.60
35700;DHT22;21818;51.078;12.108;2022-12-08T14:51:05;12.20;72.70
35700;DHT22;21818;51.078;12.108;2022-12-08T14:53:46;12.20;72.70
35700;DHT22;21818;51.078;12.108;2022-12-08T14:56:21;12.20;72.70
35700;DHT22;21818;51.078;12.108;2022-12-08T14:58:49;12.20;72.70
35700;DHT22;21818;51.078;12.108;2022-12-08T15:01:25;12.10;72.60
35700;DHT22;21818;51.078;12.108;2022-12-08T15:03:51;12.20;72.70
35700;DHT22;21818;51.078;12.108;2022-12-08T15:06:20;12.20;72.70
35700;DHT22;21818;51.078;12.108;2022-12-08T15:08:58;12.10;72.60
35700;DHT22;21818;51.078;12.108;2022-12-08T15:11:30;12.10;72.60
35700;DHT22;21818;51.078;12.108;2022-12-08T15:13:56;12.10;72.60
35700;DHT22;21818;51.078;12.108;2022-12-08T15:16:31;12.10;72.60
35700;DHT22;21818;51.078;12.108;2022-12-08T15:19:13;12.10;72.60
35700;DHT22;21818;51.078;12.108;2022-12-08T15:21:40;12.10;72.70
35700;DHT22;21818;51.078;12.108;2022-12-08T15:24:11;12.10;72.70
35700;DHT22;21818;51.078;12.108;2022-12-08T15:26:46;12.20;72.70
35700;DHT22;21818;51.078;12.108;2022-12-08T15:31:45;12.20;72.70
35700;DHT22;21818;51.078;12.108;2022-12-08T15:34:11;12.20;72.70
35700;DHT22;21818;51.078;12.108;2022-12-08T15:36:37;12.10;72.70
35700;DHT22;21818;51.078;12.108;2022-12-08T15:41:53;12.10;72.80
35700;DHT22;21818;51.078;12.108;2022-12-08T15:44:19;12.10;72.80
35700;DHT22;21818;51.078;12.108;2022-12-08T15:46:45;12.20;72.80
35700;DHT22;21818;51.078;12.108;2022-12-08T15:49:18;12.20;73.30
35700;DHT22;21818;51.078;12.108;2022-12-08T15:51:44;12.30;73.60
35700;DHT22;21818;51.078;12.108;2022-12-08T15:54:10;12.30;73.50
35700;DHT22;21818;51.078;12.108;2022-12-08T15:56:40;12.20;73.50
35700;DHT22;21818;51.078;12.108;2022-12-08T15:59:22;12.20;73.60
35700;DHT22;21818;51.078;12.108;2022-12-08T16:01:48;12.20;73.70
35700;DHT22;21818;51.078;12.108;2022-12-08T16:04:16;12.10;73.70
35700;DHT22;21818;51.078;12.108;2022-12-08T16:06:45;12.20;73.80
35700;DHT22;21818;51.078;12.108;2022-12-08T16:09:20;12.20;73.70
35700;DHT22;21818;51.078;12.108;2022-12-08T16:11:47;12.20;73.70
35700;DHT22;21818;51.078;12.108;2022-12-08T16:14:31;12.10;73.70
35700;DHT22;21818;51.078;12.108;2022-12-08T16:16:57;12.10;73.70
35700;DHT22;21818;51.078;12.108;2022-12-08T16:19:22;12.10;73.70
35700;DHT22;21818;51.078;12.108;2022-12-08T16:21:48;12.10;73.70
35700;DHT22;21818;51.078;12.108;2022-12-08T16:24:14;12.10;73.70
35700;DHT22;21818;51.078;12.108;2022-12-08T16:26:39;12.10;73.70
35700;DHT22;21818;51.078;12.108;2022-12-08T16:29:05;12.10;73.80
35700;DHT22;21818;51.078;12.108;2022-12-08T16:31:31;12.10;73.80
35700;DHT22;21818;51.078;12.108;2022-12-08T16:33:57;12.10;73.80
35700;DHT22;21818;51.078;12.108;2022-12-08T16:36:22;12.10;73.80
35700;DHT22;21818;51.078;12.108;2022-12-08T16:38:48;12.10;73.80
35700;DHT22;21818;51.078;12.108;2022-12-08T16:41:14;12.10;73.80
35700;DHT22;21818;51.078;12.108;2022-12-08T16:44:04;12.10;73.80
35700;DHT22;21818;51.078;12.108;2022-12-08T16:46:30;12.10;73.80
35700;DHT22;21818;51.078;12.108;2022-12-08T16:48:55;12.10;73.80
35700;DHT22;21818;51.078;12.108;2022-12-08T16:51:23;12.10;73.80
35700;DHT22;21818;51.078;12.108;2022-12-08T16:53:49;12.10;73.80
35700;DHT22;21818;51.078;12.108;2022-12-08T16:56:19;12.10;73.80
35700;DHT22;21818;51.078;12.108;2022-12-08T16:58:46;12.10;73.80
35700;DHT22;21818;51.078;12.108;2022-12-08T17:01:14;12.10;73.80
35700;DHT22;21818;51.078;12.108;2022-12-08T17:03:40;12.00;73.70
35700;DHT22;21818;51.078;12.108;2022-12-08T17:06:17;12.00;73.70
35700;DHT22;21818;51.078;12.108;2022-12-08T17:08:43;12.00;73.80
35700;DHT22;21818;51.078;12.108;2022-12-08T17:11:13;12.00;73.80
35700;DHT22;21818;51.078;12.108;2022-12-08T17:13:43;12.00;73.80
35700;DHT22;21818;51.078;12.108;2022-12-08T17:16:14;12.00;73.80
35700;DHT22;21818;51.078;12.108;2022-12-08T17:18:40;12.00;73.80